Airfield :







YOU CAN JOIN US ON...

 
LOGIN :

Register | Disclaimer

   EN    FR    IT 

 









Legend :    VFR   Marginal VFR   IFR   Intensive IFR   Very Intensive IFR
Visi :
Ceiling :
>= 8 km
>= 3000ft
5 to 8 km
1000 to 3000 ft
1500m to 5 km
500 to 1000 ft
800 to 1500m
200 to 500 ft
< 800m
< 200 ft
Symbols :   Thunderstorms  Fog  Heavy snow  Heavy precipitations  Wind > 20 kt






- Airport Elevation : 474 ft


KPTD - Potsdam Municipal-Damon field

CURRENT METAR :
  • 170515Z AUTO 10003KT 10SM FEW047 SCT055 M16/M18 A3050 RMK AO2

EXPIRED METARs :
  • 170455Z AUTO 08003KT 10SM FEW042 FEW048 SCT055 M14/M17 A3051 RMK AO2
  • 170435Z AUTO 09005KT 10SM FEW047 SCT055 SCT075 M15/M17 A3051 RMK AO2
  • 170415Z AUTO 06004KT 10SM SCT050 SCT060 M17/M19 A3052 RMK AO2
  • 170355Z AUTO 03003KT 10SM FEW042 SCT055 M16/M17 A3053 RMK AO2
  • 170330Z AUTO 00000KT 10SM FEW027 SCT060 SCT075 M15/M17 A3054 RMK AO2
  • 170315Z AUTO 00000KT 10SM FEW043 SCT055 SCT070 M15/M17 A3054 RMK AO2
  • 170255Z AUTO 00000KT 10SM SCT055 SCT070 M15/M17 A3055 RMK AO2
  • 170235Z AUTO 00000KT 10SM FEW050 SCT055 M15/M17 A3055 RMK AO2

TAF N/A



MET'MAP, your aeronautical weather chart ! - Copyright ORBIFLY December 2007 - Disclaimer

ORBIFLY MET'MAP TEAM :

Programming & Development : Alexandra Zaïnal
Concept & Development : Baudouin d'Aumeries
Co-Development & Prog : Marc-Olivier Méhu
Technical & hardware support : Manuel Goepfert

Contact : metmap@orbifly.com




SOURCES & CREDITS :

   NOAA